createdAt,value
2018-02-13T00:01:17.546Z,5.57
2018-02-13T00:03:47.257Z,4.70
2018-02-13T00:06:16.987Z,4.50
2018-02-13T00:08:46.371Z,5.77
2018-02-13T00:11:16.105Z,5.63
2018-02-13T00:13:45.077Z,4.77
2018-02-13T00:16:14.057Z,4.53
2018-02-13T00:18:43.090Z,4.63
2018-02-13T00:21:12.057Z,4.90
2018-02-13T00:23:41.844Z,4.87
2018-02-13T00:26:11.187Z,4.83
2018-02-13T00:28:40.606Z,5.47
2018-02-13T00:31:09.558Z,5.73
2018-02-13T00:33:39.301Z,5.20
2018-02-13T00:36:08.239Z,4.53
2018-02-13T00:38:37.221Z,4.53
2018-02-13T00:41:07.667Z,7.40
2018-02-13T00:43:36.629Z,4.90
2018-02-13T00:46:05.658Z,6.77
2018-02-13T00:48:34.568Z,5.03
2018-02-13T00:51:03.643Z,5.50
2018-02-13T00:53:32.591Z,6.30
2018-02-13T00:56:01.535Z,5.20
2018-02-13T00:58:31.240Z,6.30
2018-02-13T01:01:01.045Z,5.70
2018-02-13T01:03:30.755Z,4.73
2018-02-13T01:05:59.963Z,5.37
2018-02-13T01:08:29.712Z,6.00
2018-02-13T01:10:59.123Z,5.33
2018-02-13T01:13:28.129Z,4.97
2018-02-13T01:15:57.187Z,5.07
2018-02-13T01:18:26.577Z,5.63
2018-02-13T01:20:55.531Z,5.20
2018-02-13T01:23:25.228Z,4.60
2018-02-13T01:25:54.215Z,5.10
2018-02-13T01:28:23.196Z,5.13
2018-02-13T01:30:52.137Z,5.20
2018-02-13T01:33:21.893Z,4.60
2018-02-13T01:35:50.869Z,5.70
2018-02-13T01:38:20.249Z,4.90
2018-02-13T01:40:50.045Z,6.00
2018-02-13T01:43:19.824Z,4.80
2018-02-13T01:45:49.555Z,6.20
2018-02-13T01:48:19.070Z,5.23
2018-02-13T01:50:48.165Z,5.23
2018-02-13T01:53:17.159Z,4.77
2018-02-13T01:55:46.074Z,5.43
2018-02-13T01:58:15.040Z,5.97
2018-02-13T02:00:43.984Z,6.30
2018-02-13T02:03:12.912Z,5.33
2018-02-13T02:05:42.779Z,5.60
2018-02-13T02:08:11.738Z,6.47
2018-02-13T02:10:41.448Z,6.40
2018-02-13T02:13:10.534Z,6.97
2018-02-13T02:15:40.262Z,6.97
2018-02-13T02:18:10.144Z,5.60
2018-02-13T02:20:40.583Z,6.67
2018-02-13T02:23:10.322Z,7.07
2018-02-13T02:25:39.255Z,6.73
2018-02-13T02:28:08.199Z,7.20
2018-02-13T02:30:38.189Z,8.70
2018-02-13T02:33:07.107Z,7.57
2018-02-13T02:35:36.585Z,8.13
2018-02-13T02:38:06.313Z,7.93
2018-02-13T02:40:36.068Z,8.20
2018-02-13T02:43:05.820Z,7.40
2018-02-13T02:45:35.585Z,8.10
2018-02-13T02:48:04.555Z,7.90
2018-02-13T02:50:33.499Z,8.13
2018-02-13T02:53:03.320Z,6.83
2018-02-13T02:55:32.268Z,7.90
2018-02-13T02:58:01.378Z,9.03
2018-02-13T03:00:31.272Z,7.67
2018-02-13T03:03:00.227Z,8.07
2018-02-13T03:05:30.030Z,7.50
2018-02-13T03:07:59.094Z,8.33
2018-02-13T03:10:28.078Z,8.90
2018-02-13T03:12:58.547Z,8.37
2018-02-13T03:15:27.533Z,9.47
2018-02-13T03:17:57.235Z,8.43
2018-02-13T03:20:26.221Z,8.67
2018-02-13T03:22:55.960Z,8.90
2018-02-13T03:25:24.968Z,9.47
2018-02-13T03:27:54.690Z,9.70
2018-02-13T03:30:24.011Z,8.33
2018-02-13T03:32:53.380Z,9.80
2018-02-13T03:35:23.309Z,10.20
2018-02-13T03:37:52.272Z,9.70
2018-02-13T03:40:21.228Z,10.17
2018-02-13T03:42:50.204Z,11.73
2018-02-13T03:45:19.182Z,10.90
2018-02-13T03:47:48.218Z,11.20
2018-02-13T03:50:17.939Z,9.70
2018-02-13T03:52:47.647Z,10.43
2018-02-13T03:55:17.049Z,10.33
2018-02-13T03:57:46.751Z,9.90
2018-02-13T04:00:16.530Z,10.47
2018-02-13T04:02:45.500Z,10.70
2018-02-13T04:05:14.836Z,9.90
2018-02-13T04:07:44.068Z,9.80
2018-02-13T04:10:13.013Z,10.77
2018-02-13T04:12:43.476Z,11.20
2018-02-13T04:15:13.245Z,9.80
2018-02-13T04:17:42.234Z,10.27
2018-02-13T04:20:11.185Z,10.10
2018-02-13T04:22:40.177Z,11.93
2018-02-13T04:25:09.175Z,11.50
2018-02-13T04:27:38.104Z,10.17
2018-02-13T04:30:07.684Z,11.27
2018-02-13T04:32:36.655Z,10.63
2018-02-13T04:35:06.000Z,11.10
2018-02-13T04:37:34.989Z,10.90
2018-02-13T04:40:03.982Z,11.00
2018-02-13T04:42:32.961Z,10.93
2018-02-13T04:45:01.925Z,12.23
2018-02-13T04:47:30.884Z,11.33
2018-02-13T04:49:59.864Z,13.07
2018-02-13T04:52:28.849Z,10.50
2018-02-13T04:54:57.823Z,11.83
2018-02-13T04:57:26.845Z,11.93
2018-02-13T04:59:56.592Z,12.10
2018-02-13T05:02:25.561Z,12.20
2018-02-13T05:04:55.278Z,14.93
2018-02-13T05:07:25.012Z,12.67
2018-02-13T05:09:54.401Z,12.20
2018-02-13T05:12:23.753Z,11.17
2018-02-13T05:14:53.478Z,14.70
2018-02-13T05:17:22.482Z,12.67
2018-02-13T05:19:53.877Z,13.67
2018-02-13T05:22:23.285Z,11.83
2018-02-13T05:24:52.227Z,13.27
2018-02-13T05:27:21.977Z,13.00
2018-02-13T05:29:50.949Z,12.90
2018-02-13T05:32:19.942Z,12.70
2018-02-13T05:34:48.909Z,11.40
2018-02-13T05:37:17.876Z,12.53
2018-02-13T05:39:46.956Z,13.80
2018-02-13T05:42:15.899Z,12.70
2018-02-13T05:44:45.667Z,13.37
2018-02-13T05:47:15.070Z,13.00
2018-02-13T05:49:44.015Z,11.73
2018-02-13T05:52:13.386Z,12.77
2018-02-13T05:54:43.129Z,12.40
2018-02-13T05:57:12.861Z,14.00
2018-02-13T05:59:41.833Z,13.93
2018-02-13T06:02:10.814Z,14.13
2018-02-13T06:04:40.180Z,12.97
2018-02-13T06:07:09.944Z,13.43
2018-02-13T06:09:38.997Z,13.30
2018-02-13T06:12:07.992Z,13.00
2018-02-13T06:14:37.765Z,12.67
2018-02-13T06:17:07.519Z,12.23
2018-02-13T06:19:37.399Z,14.60
2018-02-13T06:22:06.356Z,13.43
2018-02-13T06:24:35.338Z,14.10
2018-02-13T06:27:04.707Z,13.70
2018-02-13T06:29:33.708Z,13.53
2018-02-13T06:32:02.688Z,14.10
2018-02-13T06:34:31.834Z,13.50
2018-02-13T06:37:01.557Z,12.77
2018-02-13T06:39:30.615Z,13.90
2018-02-13T06:42:00.361Z,13.07
2018-02-13T06:44:29.317Z,14.27
2018-02-13T06:46:59.048Z,14.03
2018-02-13T06:49:28.049Z,12.90
2018-02-13T06:51:57.112Z,14.20
2018-02-13T06:54:26.151Z,14.13
2018-02-13T06:56:55.211Z,14.00
2018-02-13T06:59:24.578Z,15.63
2018-02-13T07:01:53.560Z,15.53
2018-02-13T07:04:22.526Z,14.27
2018-02-13T07:06:51.525Z,13.40
2018-02-13T07:09:20.679Z,13.20
2018-02-13T07:11:50.443Z,16.50
2018-02-13T07:14:20.194Z,13.73
2018-02-13T07:16:50.655Z,13.60
2018-02-13T07:19:20.531Z,13.03
2018-02-13T07:21:49.930Z,12.87
2018-02-13T07:24:19.684Z,12.33
2018-02-13T07:26:48.741Z,13.60
2018-02-13T07:29:17.783Z,13.20
2018-02-13T07:31:46.816Z,12.60
2018-02-13T07:34:16.641Z,13.13
2018-02-13T07:36:45.754Z,13.50
2018-02-13T07:39:14.968Z,15.00
2018-02-13T07:41:45.673Z,12.70
2018-02-13T07:44:15.540Z,11.73
2018-02-13T07:46:45.874Z,12.40
2018-02-13T07:49:15.895Z,11.70
2018-02-13T07:51:45.746Z,11.90
2018-02-13T07:54:14.739Z,13.27
2018-02-13T07:56:43.876Z,11.67
2018-02-13T07:59:13.597Z,12.87
2018-02-13T08:01:42.699Z,11.67
2018-02-13T08:04:11.677Z,11.20
2018-02-13T08:06:40.718Z,12.00
2018-02-13T08:09:10.553Z,11.50
2018-02-13T08:11:39.571Z,10.30
2018-02-13T08:14:09.821Z,11.03
2018-02-13T08:16:38.865Z,10.50
2018-02-13T08:19:09.365Z,11.50
2018-02-13T08:21:38.411Z,9.80
2018-02-13T08:24:07.444Z,10.00
2018-02-13T08:26:36.468Z,10.10
2018-02-13T08:29:05.576Z,9.33
2018-02-13T08:31:34.585Z,8.60
2018-02-13T08:34:04.395Z,8.93
2018-02-13T08:36:34.955Z,9.70
2018-02-13T08:39:05.423Z,11.63
2018-02-13T08:41:34.855Z,10.95
2018-02-13T08:44:04.357Z,10.40
2018-02-13T08:46:33.387Z,9.50
2018-02-13T08:49:02.581Z,8.37
2018-02-13T08:51:31.543Z,9.40
2018-02-13T08:54:00.517Z,8.97
2018-02-13T08:56:29.580Z,9.90
2018-02-13T08:58:59.212Z,8.30
2018-02-13T09:01:28.351Z,9.73
2018-02-13T09:03:57.394Z,8.87
2018-02-13T09:06:26.605Z,9.50
2018-02-13T09:08:55.568Z,8.40
2018-02-13T09:11:24.625Z,8.17
2018-02-13T09:13:53.673Z,7.90
2018-02-13T09:16:23.183Z,7.73
2018-02-13T09:18:52.205Z,7.40
2018-02-13T09:21:21.997Z,8.27
2018-02-13T09:23:52.305Z,7.50
2018-02-13T09:26:21.333Z,7.77
2018-02-13T09:28:51.093Z,7.33
2018-02-13T09:31:21.076Z,7.43
2018-02-13T09:33:50.863Z,6.63
2018-02-13T09:36:21.332Z,6.87
2018-02-13T09:38:50.315Z,7.10
2018-02-13T09:41:20.109Z,7.60
2018-02-13T09:43:49.117Z,7.20
2018-02-13T09:46:18.105Z,7.60
2018-02-13T09:48:47.112Z,7.17
2018-02-13T09:51:16.866Z,6.90
2018-02-13T09:53:45.899Z,5.80
2018-02-13T09:56:15.597Z,6.37
2018-02-13T09:58:45.448Z,6.30
2018-02-13T10:01:16.644Z,7.10
2018-02-13T10:03:45.915Z,6.40
2018-02-13T10:06:15.361Z,6.70
2018-02-13T10:08:46.066Z,6.30
2018-02-13T10:11:15.930Z,7.07
2018-02-13T10:13:45.724Z,5.30
2018-02-13T10:16:14.723Z,5.47
2018-02-13T10:18:45.419Z,5.50
2018-02-13T10:21:14.872Z,5.30
2018-02-13T10:23:43.833Z,5.20
2018-02-13T10:26:13.674Z,5.27
2018-02-13T10:28:43.426Z,5.73
2018-02-13T10:31:12.404Z,5.13
2018-02-13T10:33:41.389Z,4.70
2018-02-13T10:36:11.774Z,5.57
2018-02-13T10:38:40.756Z,5.07
2018-02-13T10:41:09.768Z,5.17
2018-02-13T10:43:38.814Z,4.87
2018-02-13T10:46:07.825Z,4.87
2018-02-13T10:48:36.790Z,5.07
2018-02-13T10:51:06.186Z,4.93
2018-02-13T10:53:35.564Z,5.10
2018-02-13T10:56:05.297Z,4.90
2018-02-13T10:58:34.331Z,4.87
2018-02-13T11:01:18.869Z,5.00
2018-02-13T11:03:47.869Z,4.13
2018-02-13T11:06:16.897Z,3.87
2018-02-13T11:08:45.873Z,4.50
2018-02-13T11:11:16.077Z,4.00
2018-02-13T11:13:45.065Z,4.37
2018-02-13T11:16:14.022Z,4.60
2018-02-13T11:18:43.001Z,4.40
2018-02-13T11:21:12.774Z,4.17
2018-02-13T11:23:41.802Z,4.10
2018-02-13T11:26:10.840Z,4.40
2018-02-13T11:28:39.792Z,4.13
2018-02-13T11:31:09.601Z,3.93
2018-02-13T11:33:38.680Z,3.40
2018-02-13T11:36:07.826Z,3.77
2018-02-13T11:38:36.746Z,3.53
2018-02-13T11:41:06.509Z,3.50
2018-02-13T11:43:35.462Z,4.90
2018-02-13T11:46:04.423Z,4.43
2018-02-13T11:48:33.397Z,2.50
2018-02-13T11:51:02.364Z,3.60
2018-02-13T11:53:32.068Z,2.72
2018-02-13T11:56:01.048Z,3.90
2018-02-13T11:58:30.044Z,3.20
2018-02-13T12:01:00.560Z,3.20
2018-02-13T12:03:30.489Z,3.40
2018-02-13T12:05:59.452Z,3.33
2018-02-13T12:08:29.206Z,2.70
2018-02-13T12:10:59.534Z,2.83
2018-02-13T12:13:29.526Z,2.97
2018-02-13T12:15:58.495Z,3.17
2018-02-13T12:18:27.534Z,2.70
2018-02-13T12:20:56.542Z,2.60
2018-02-13T12:23:25.560Z,2.40
2018-02-13T12:25:54.531Z,2.60
2018-02-13T12:28:23.509Z,3.10
2018-02-13T12:30:53.294Z,3.20
2018-02-13T12:33:22.399Z,2.60
2018-02-13T12:35:51.422Z,2.57
2018-02-13T12:38:20.418Z,2.70
2018-02-13T12:40:49.435Z,2.27
2018-02-13T12:43:18.467Z,2.90
2018-02-13T12:45:47.683Z,2.80
2018-02-13T12:48:16.663Z,2.63
2018-02-13T12:50:46.541Z,2.90
2018-02-13T12:53:15.482Z,2.63
2018-02-13T12:55:44.598Z,2.27
2018-02-13T12:58:13.610Z,2.33
2018-02-13T13:00:42.556Z,3.07
2018-02-13T13:03:12.315Z,2.63
2018-02-13T13:05:41.247Z,2.20
2018-02-13T13:08:11.035Z,2.40
2018-02-13T13:10:39.983Z,1.90
2018-02-13T13:13:09.336Z,3.00
2018-02-13T13:15:39.807Z,2.27
2018-02-13T13:18:08.755Z,3.10
2018-02-13T13:20:37.716Z,2.47
2018-02-13T13:23:06.669Z,2.60
2018-02-13T13:25:36.423Z,2.53
2018-02-13T13:28:05.433Z,2.33
2018-02-13T13:30:34.399Z,2.47
2018-02-13T13:33:03.372Z,3.87
2018-02-13T13:35:32.748Z,2.53
2018-02-13T13:38:02.473Z,2.53
2018-02-13T13:40:31.455Z,2.20
2018-02-13T13:43:00.787Z,2.97
2018-02-13T13:45:30.509Z,2.10
2018-02-13T13:47:59.489Z,2.20
2018-02-13T13:50:28.467Z,2.27
2018-02-13T13:52:57.413Z,2.73
2018-02-13T13:55:26.402Z,2.03
2018-02-13T13:57:55.331Z,2.90
2018-02-13T14:00:24.315Z,2.90
2018-02-13T14:02:54.072Z,2.30
2018-02-13T14:05:23.185Z,1.87
2018-02-13T14:07:52.178Z,2.37
2018-02-13T14:10:21.128Z,2.17
2018-02-13T14:12:50.089Z,2.30
2018-02-13T14:15:19.894Z,2.13
2018-02-13T14:17:50.314Z,2.63
2018-02-13T14:20:20.098Z,2.27
2018-02-13T14:22:49.087Z,2.17
2018-02-13T14:25:18.492Z,2.07
2018-02-13T14:27:47.466Z,1.97
2018-02-13T14:30:17.552Z,2.17
2018-02-13T14:32:46.485Z,2.00
2018-02-13T14:35:15.531Z,2.53
2018-02-13T14:37:45.329Z,2.10
2018-02-13T14:40:14.324Z,2.03
2018-02-13T14:42:44.039Z,2.30
2018-02-13T14:45:13.400Z,3.03
2018-02-13T14:47:42.353Z,2.50
2018-02-13T14:50:11.303Z,2.57
2018-02-13T14:52:40.279Z,1.93
2018-02-13T14:55:09.896Z,2.07
2018-02-13T14:57:38.881Z,2.33
2018-02-13T15:00:07.862Z,1.93
2018-02-13T15:02:36.894Z,2.40
2018-02-13T15:05:05.862Z,2.10
2018-02-13T15:07:35.212Z,2.20
2018-02-13T15:10:04.186Z,2.20
2018-02-13T15:12:33.991Z,2.20
2018-02-13T15:15:12.985Z,2.40
2018-02-13T15:17:58.495Z,2.83
2018-02-13T15:20:28.409Z,2.73
2018-02-13T15:22:57.333Z,2.60
2018-02-13T15:25:27.442Z,2.90
2018-02-13T15:27:56.544Z,2.70
2018-02-13T15:30:25.525Z,3.20
2018-02-13T15:32:54.606Z,3.93
2018-02-13T15:35:24.360Z,3.60
2018-02-13T15:37:53.280Z,3.43
2018-02-13T15:40:22.729Z,3.20
2018-02-13T15:42:52.432Z,3.10
2018-02-13T15:45:22.791Z,2.80
2018-02-13T15:47:52.041Z,3.33
2018-02-13T15:50:21.864Z,4.70
2018-02-13T15:52:51.659Z,5.40
2018-02-13T15:55:20.688Z,4.20
2018-02-13T15:57:51.429Z,5.23
2018-02-13T16:00:21.899Z,4.47
2018-02-13T16:02:50.902Z,4.10
2018-02-13T16:05:19.926Z,3.00
2018-02-13T16:07:49.472Z,3.00
2018-02-13T16:10:18.425Z,2.73
2018-02-13T16:12:47.436Z,3.17
2018-02-13T16:15:17.752Z,2.83
2018-02-13T16:17:46.734Z,2.90
2018-02-13T16:20:15.722Z,2.73
2018-02-13T16:22:45.423Z,3.10
2018-02-13T16:25:14.776Z,3.73
2018-02-13T16:27:43.796Z,3.47
2018-02-13T16:30:12.760Z,3.30
2018-02-13T16:32:42.089Z,3.10
2018-02-13T16:35:11.045Z,3.80
2018-02-13T16:37:40.412Z,3.17
2018-02-13T16:40:09.612Z,3.30
2018-02-13T16:42:38.985Z,4.13
2018-02-13T16:45:08.328Z,4.27
2018-02-13T16:47:37.350Z,4.30
2018-02-13T16:50:06.422Z,4.13
2018-02-13T16:52:36.234Z,5.10
2018-02-13T16:55:07.339Z,4.30
2018-02-13T16:57:36.390Z,4.27
2018-02-13T17:00:05.422Z,3.87
2018-02-13T17:02:35.140Z,4.77
2018-02-13T17:05:05.073Z,4.47
2018-02-13T17:07:34.028Z,5.30
2018-02-13T17:10:02.977Z,5.30
2018-02-13T17:12:31.936Z,5.87
2018-02-13T17:15:01.637Z,4.97
2018-02-13T17:17:30.657Z,5.37
2018-02-13T17:19:59.708Z,5.20
2018-02-13T17:22:28.725Z,5.10
2018-02-13T17:24:57.659Z,6.13
2018-02-13T17:27:26.604Z,6.03
2018-02-13T17:29:55.679Z,6.00
2018-02-13T17:32:26.128Z,5.60
2018-02-13T17:34:55.867Z,7.43
2018-02-13T17:37:24.820Z,7.07
2018-02-13T17:39:54.617Z,7.57
2018-02-13T17:42:23.965Z,6.73
2018-02-13T17:44:52.995Z,5.70
2018-02-13T17:47:22.720Z,6.43
2018-02-13T17:49:51.693Z,5.67
2018-02-13T17:52:20.669Z,5.93
2018-02-13T17:54:50.107Z,6.00
2018-02-13T17:57:19.037Z,5.50
2018-02-13T17:59:47.995Z,5.13
2018-02-13T18:02:17.088Z,5.13
2018-02-13T18:04:46.438Z,5.60
2018-02-13T18:07:15.456Z,5.60
2018-02-13T18:09:44.472Z,5.70
2018-02-13T18:12:15.229Z,6.47
2018-02-13T18:14:44.764Z,5.80
2018-02-13T18:17:15.071Z,5.70
2018-02-13T18:19:44.823Z,6.67
2018-02-13T18:22:14.555Z,6.80
2018-02-13T18:24:43.638Z,6.20
2018-02-13T18:27:13.263Z,5.27
2018-02-13T18:29:42.225Z,5.47
2018-02-13T18:32:11.951Z,5.70
2018-02-13T18:34:41.325Z,6.13
2018-02-13T18:37:10.287Z,6.10
2018-02-13T18:39:40.072Z,5.80
2018-02-13T18:42:10.137Z,5.80
2018-02-13T18:44:39.280Z,5.77
2018-02-13T18:47:08.263Z,7.10
2018-02-13T18:49:37.235Z,7.40
2018-02-13T18:52:06.201Z,8.97
2018-02-13T18:54:35.251Z,8.40
2018-02-13T18:57:04.212Z,7.17
2018-02-13T18:59:33.963Z,8.07
2018-02-13T19:02:03.795Z,7.30
2018-02-13T19:04:32.765Z,7.97
2018-02-13T19:07:02.588Z,8.23
2018-02-13T19:09:31.645Z,8.57
2018-02-13T19:12:01.542Z,8.73
2018-02-13T19:14:30.543Z,8.33
2018-02-13T19:19:28.512Z,6.43
2018-02-13T19:21:58.368Z,6.60
2018-02-13T19:24:28.133Z,7.33
2018-02-13T19:26:57.584Z,6.53
2018-02-13T19:29:26.976Z,7.17
2018-02-13T19:31:57.071Z,5.70
2018-02-13T19:34:26.053Z,6.20
2018-02-13T19:36:55.920Z,7.10
2018-02-13T19:39:25.663Z,8.17
2018-02-13T19:41:54.760Z,8.80
2018-02-13T19:44:25.195Z,8.03
2018-02-13T19:46:54.249Z,6.97
2018-02-13T19:49:23.314Z,7.33
2018-02-13T19:51:52.779Z,8.40
2018-02-13T19:54:21.970Z,7.53
2018-02-13T19:56:52.550Z,7.93
2018-02-13T19:59:21.580Z,7.20
2018-02-13T20:01:51.238Z,7.23
2018-02-13T20:04:20.309Z,8.00
2018-02-13T20:06:49.292Z,6.20
2018-02-13T20:09:19.600Z,6.83
2018-02-13T20:11:49.170Z,7.83
2018-02-13T20:14:18.592Z,7.23
2018-02-13T20:16:47.685Z,9.23
2018-02-13T20:19:16.714Z,8.93
2018-02-13T20:21:46.980Z,8.90
2018-02-13T20:24:18.559Z,8.37
2018-02-13T20:26:48.964Z,7.20
2018-02-13T20:29:20.916Z,8.83
2018-02-13T20:31:50.528Z,8.20
2018-02-13T20:34:19.558Z,8.50
2018-02-13T20:36:48.626Z,8.20
2018-02-13T20:39:17.775Z,7.60
2018-02-13T20:41:49.404Z,7.30
2018-02-13T20:44:18.188Z,6.77
2018-02-13T20:46:47.208Z,7.83
2018-02-13T20:49:16.244Z,8.30
2018-02-13T20:51:47.624Z,8.77
2018-02-13T20:54:16.735Z,11.65
2018-02-13T20:56:45.756Z,11.77
2018-02-13T20:59:15.258Z,13.97
2018-02-13T21:01:45.350Z,12.33
2018-02-13T21:04:14.721Z,11.93
2018-02-13T21:06:43.789Z,11.50
2018-02-13T21:09:13.389Z,9.20
2018-02-13T21:11:42.651Z,8.77
2018-02-13T21:14:13.540Z,7.90
2018-02-13T21:16:43.139Z,7.50
2018-02-13T21:19:13.095Z,7.23
2018-02-13T21:21:42.483Z,7.70
2018-02-13T21:24:12.615Z,7.30
2018-02-13T21:26:42.984Z,8.13
2018-02-13T21:29:12.804Z,7.60
2018-02-13T21:31:42.725Z,7.03
2018-02-13T21:34:12.472Z,7.83
2018-02-13T21:36:41.497Z,6.90
2018-02-13T21:39:10.908Z,7.33
2018-02-13T21:41:40.303Z,7.23
2018-02-13T21:44:10.259Z,8.47
2018-02-13T21:46:39.237Z,7.40
2018-02-13T21:49:08.991Z,7.20
2018-02-13T21:51:39.500Z,8.60
2018-02-13T21:54:09.322Z,8.13
2018-02-13T21:56:38.289Z,7.47
2018-02-13T21:59:08.047Z,6.40
2018-02-13T22:01:38.230Z,9.07
2018-02-13T22:04:07.987Z,8.40
2018-02-13T22:06:36.967Z,7.73
2018-02-13T22:09:05.973Z,8.07
2018-02-13T22:11:35.530Z,7.10
2018-02-13T22:14:04.807Z,7.27
2018-02-13T22:16:33.799Z,8.53
2018-02-13T22:19:03.563Z,8.37
2018-02-13T22:21:32.534Z,8.10
2018-02-13T22:24:01.572Z,8.00
2018-02-13T22:26:31.297Z,6.90
2018-02-13T22:29:00.237Z,8.27
2018-02-13T22:31:29.609Z,7.90
2018-02-13T22:33:59.308Z,7.77
2018-02-13T22:36:28.296Z,7.67
2018-02-13T22:38:57.719Z,7.53
2018-02-13T22:41:26.675Z,6.83
2018-02-13T22:43:56.443Z,8.47
2018-02-13T22:46:25.832Z,7.90
2018-02-13T22:48:54.879Z,7.93
2018-02-13T22:51:23.860Z,7.70
2018-02-13T22:53:52.998Z,8.50
2018-02-13T22:56:22.395Z,7.70
2018-02-13T22:58:52.136Z,7.60
2018-02-13T23:01:21.076Z,7.77
2018-02-13T23:03:51.559Z,7.83
2018-02-13T23:06:20.520Z,8.73
2018-02-13T23:08:49.448Z,8.03
2018-02-13T23:11:18.505Z,8.40
2018-02-13T23:13:47.472Z,8.70
2018-02-13T23:16:16.795Z,8.57
2018-02-13T23:18:46.501Z,8.30
2018-02-13T23:21:16.261Z,9.17
2018-02-13T23:23:45.984Z,8.23
2018-02-13T23:26:15.696Z,8.40
2018-02-13T23:28:45.156Z,8.07
2018-02-13T23:31:14.233Z,7.97
2018-02-13T23:33:43.648Z,8.17
2018-02-13T23:36:13.398Z,8.80
2018-02-13T23:38:42.376Z,7.90
2018-02-13T23:41:11.329Z,8.80
2018-02-13T23:43:41.130Z,7.47
2018-02-13T23:46:10.561Z,7.33
2018-02-13T23:48:39.550Z,7.13
2018-02-13T23:51:09.261Z,6.50
2018-02-13T23:53:38.613Z,7.27
2018-02-13T23:56:07.612Z,7.20
2018-02-13T23:58:36.565Z,6.50
